SCDA 230400Z 00000KT CAVOK 20/14 Q1014